Terminal Aerodrome Forecast
Issued by NWS

Home | Current Version | Previous Version | Text Only | Print | Product List | Glossary On
Versions: 1 2 3 4 5 6 7 8 9 10 11 12 13 14 15 16
000
FTUS45 KBOI 102349
TAFBKE
TAF
KBKE 102349Z 1100/1124 VRB05KT P6SM OVC050
     FM110600 VRB03KT 3/4SM BR OVC005
     FM111800 13009KT P6SM FEW020 OVC040=

USA.gov is the U.S. government's official web portal to all federal, state and local government web resources and services.